Time;durP1;ratioP1;P1;durP2;ratioP2;P2;SDS_P1;SDS_P2;PMS_P1;PMS_P2;Temp;Humidity;BMP_temperature;BMP_pressure;BME280_temperature;BME280_humidity;BME280_pressure;Samples;Min_cycle;Max_cycle;Signal;HPM_P1;HPM_P2
2022/01/20 14:43:31;;;;;;;;;;;20.80;79.40;;;;;;5089471;28;19926;-81
2022/01/20 14:45:57;;;;;;;;;;;20.70;79.40;;;;;;5091852;28;20373;-81
2022/01/20 14:48:24;;;;;;;;;;;20.70;79.30;;;;;;5073127;28;20390;-81
2022/01/20 14:50:53;;;;;;;;;;;20.70;79.30;;;;;;5091720;28;20006;-82
2022/01/20 14:53:20;;;;;;;;;;;20.70;79.60;;;;;;5091203;28;19908;-81
2022/01/20 14:55:46;;;;;;;;;;;20.80;79.50;;;;;;5068910;28;19990;-81
2022/01/20 14:58:13;;;;;;;;;;;20.70;79.60;;;;;;5091587;28;19955;-81
2022/01/20 15:00:39;;;;;;;;;;;20.70;79.90;;;;;;5091908;28;19908;-82
2022/01/20 15:03:06;;;;;;;;;;;20.70;79.90;;;;;;5091309;28;19915;-81
2022/01/20 15:05:33;;;;;;;;;;;20.70;80.20;;;;;;5091973;28;19912;-82
2022/01/20 15:07:59;;;;;;;;;;;20.70;80.20;;;;;;5090690;28;19904;-81
2022/01/20 15:10:26;;;;;;;;;;;20.70;80.30;;;;;;5073283;28;20436;-81
2022/01/20 15:12:59;;;;;;;;;;;20.70;80.50;;;;;;5091120;28;19915;-81
2022/01/20 15:15:26;;;;;;;;;;;20.60;80.60;;;;;;5092098;28;19908;-82
2022/01/20 15:17:53;;;;;;;;;;;20.70;80.70;;;;;;5092315;28;19914;-81
2022/01/20 15:20:19;;;;;;;;;;;20.70;80.80;;;;;;5090964;28;19908;-81
2022/01/20 15:22:46;;;;;;;;;;;20.70;81.00;;;;;;5091704;28;20006;-81
2022/01/20 15:25:12;;;;;;;;;;;20.70;81.10;;;;;;5091857;28;19994;-81
2022/01/20 15:27:39;;;;;;;;;;;20.70;79.60;;;;;;5091787;28;19926;-81
2022/01/20 15:30:06;;;;;;;;;;;20.60;78.80;;;;;;5073011;28;19995;-82
2022/01/20 15:32:32;;;;;;;;;;;20.70;78.30;;;;;;5055781;28;19908;-82
2022/01/20 15:34:59;;;;;;;;;;;20.70;77.90;;;;;;5071539;28;20282;-82
2022/01/20 15:37:26;;;;;;;;;;;20.70;77.70;;;;;;5056641;28;19908;-82
2022/01/20 15:39:52;;;;;;;;;;;20.70;77.50;;;;;;5090977;28;19961;-83
2022/01/20 15:42:19;;;;;;;;;;;20.70;77.00;;;;;;5091157;28;19923;-82
2022/01/20 15:44:45;;;;;;;;;;;20.70;77.00;;;;;;5091028;28;19935;-82
2022/01/20 15:47:12;;;;;;;;;;;20.80;77.10;;;;;;5078193;28;19955;-82
2022/01/20 15:49:38;;;;;;;;;;;20.80;76.90;;;;;;5082614;28;19941;-82
2022/01/20 15:52:05;;;;;;;;;;;20.80;76.70;;;;;;5090567;28;20007;-82
2022/01/20 15:54:31;;;;;;;;;;;20.70;76.10;;;;;;5090802;28;20003;-82
2022/01/20 15:56:58;;;;;;;;;;;20.80;76.20;;;;;;5091400;28;19908;-82
2022/01/20 15:59:25;;;;;;;;;;;20.80;76.20;;;;;;5091316;28;19914;-83
2022/01/20 16:01:51;;;;;;;;;;;20.80;75.70;;;;;;5073390;28;19915;-82
2022/01/20 16:04:18;;;;;;;;;;;20.80;76.00;;;;;;5091206;28;20393;-83
2022/01/20 16:06:47;;;;;;;;;;;20.80;76.00;;;;;;5072659;28;20436;-82
2022/01/20 16:09:13;;;;;;;;;;;20.80;76.00;;;;;;5090508;28;19930;-83
2022/01/20 17:02:31;;;;;;;;;;;19.30;87.90;;;;;;5069488;28;19927;-83
2022/01/20 17:04:58;;;;;;;;;;;19.30;88.00;;;;;;5073123;28;20015;-82
2022/01/20 17:07:24;;;;;;;;;;;19.30;87.80;;;;;;5073252;28;19909;-83
2022/01/20 17:09:51;;;;;;;;;;;19.40;87.40;;;;;;5063798;28;19955;-84
2022/01/20 17:12:18;;;;;;;;;;;19.40;87.50;;;;;;5054806;28;19909;-82
2022/01/20 17:14:44;;;;;;;;;;;19.40;86.60;;;;;;5054396;28;19908;-82
2022/01/20 17:17:11;;;;;;;;;;;19.40;86.40;;;;;;5054227;28;19912;-83
2022/01/20 17:19:39;;;;;;;;;;;19.40;85.70;;;;;;5055333;28;19916;-83
2022/01/20 17:22:08;;;;;;;;;;;19.40;85.40;;;;;;5066321;28;20007;-83
2022/01/20 17:24:35;;;;;;;;;;;19.40;84.80;;;;;;5073519;28;19911;-84
2022/01/20 17:27:02;;;;;;;;;;;19.40;84.60;;;;;;5060803;28;19908;-83
2022/01/20 17:29:29;;;;;;;;;;;19.40;84.50;;;;;;5054006;28;19991;-84
2022/01/20 17:31:55;;;;;;;;;;;19.50;84.50;;;;;;5067453;28;20000;-83
2022/01/20 17:34:22;;;;;;;;;;;19.50;84.40;;;;;;5071494;28;19916;-84
2022/01/20 17:36:48;;;;;;;;;;;19.50;84.60;;;;;;5055506;28;19908;-84
2022/01/20 17:39:15;;;;;;;;;;;19.60;84.80;;;;;;5069284;28;19917;-85
2022/01/20 17:41:41;;;;;;;;;;;19.60;84.80;;;;;;5051940;28;19905;-84
2022/01/20 17:44:10;;;;;;;;;;;19.60;85.20;;;;;;5053491;28;19994;-83
2022/01/20 17:46:36;;;;;;;;;;;19.70;86.00;;;;;;5069618;28;19922;-83
2022/01/20 17:49:03;;;;;;;;;;;19.60;86.30;;;;;;5072046;28;20301;-82
2022/01/20 17:51:30;;;;;;;;;;;19.60;86.80;;;;;;5054695;28;19915;-88
2022/01/20 17:53:58;;;;;;;;;;;19.60;86.70;;;;;;5049462;28;19944;-86
2022/01/20 17:56:25;;;;;;;;;;;19.60;86.50;;;;;;5073210;28;19901;-87
2022/01/20 17:58:51;;;;;;;;;;;19.70;87.10;;;;;;5072436;28;20350;-88
2022/01/20 18:01:18;;;;;;;;;;;19.70;86.80;;;;;;5073432;28;19916;-85
2022/01/20 18:03:45;;;;;;;;;;;19.70;86.50;;;;;;5073242;28;19998;-86
2022/01/20 18:06:14;;;;;;;;;;;19.70;85.90;;;;;;5054765;28;20328;-86
2022/01/20 18:08:41;;;;;;;;;;;19.70;84.30;;;;;;5045543;28;19936;-86
2022/01/20 18:11:08;;;;;;;;;;;19.70;84.40;;;;;;5056426;28;20282;-84
2022/01/20 18:13:35;;;;;;;;;;;19.70;84.40;;;;;;5072454;28;19904;-86
2022/01/20 18:16:01;;;;;;;;;;;19.80;84.00;;;;;;5072333;28;20222;-86
2022/01/20 18:18:29;;;;;;;;;;;19.80;83.90;;;;;;5058276;28;19912;-86
2022/01/20 18:20:56;;;;;;;;;;;19.90;84.20;;;;;;5064544;28;19909;-92
2022/01/20 18:23:23;;;;;;;;;;;19.90;84.00;;;;;;5070722;28;20029;-90
2022/01/20 18:25:49;;;;;;;;;;;19.90;83.90;;;;;;5074093;28;20548;-89
2022/01/20 18:28:16;;;;;;;;;;;20.00;84.00;;;;;;5071462;28;19916;-84
2022/01/20 18:30:42;;;;;;;;;;;20.00;84.10;;;;;;5071271;28;20282;-82
2022/01/20 18:33:09;;;;;;;;;;;20.00;84.60;;;;;;5067651;28;19916;-83
2022/01/20 18:35:37;;;;;;;;;;;19.90;83.90;;;;;;5059178;28;20359;-83
2022/01/20 18:38:03;;;;;;;;;;;20.00;84.30;;;;;;5058648;28;19954;-83
2022/01/20 18:40:30;;;;;;;;;;;20.00;84.60;;;;;;5052420;28;19908;-83
2022/01/20 18:42:57;;;;;;;;;;;20.10;84.90;;;;;;5051297;28;20271;-84
2022/01/20 18:45:23;;;;;;;;;;;20.10;84.70;;;;;;5052211;28;20398;-83
2022/01/20 18:47:50;;;;;;;;;;;20.10;85.10;;;;;;5067683;28;20366;-84
2022/01/20 18:50:16;;;;;;;;;;;20.20;84.90;;;;;;5072007;28;19919;-83
2022/01/20 18:52:43;;;;;;;;;;;20.10;84.80;;;;;;5071881;28;19905;-84
2022/01/20 18:55:10;;;;;;;;;;;20.20;84.60;;;;;;5072096;28;19981;-83
2022/01/20 18:57:37;;;;;;;;;;;20.10;84.20;;;;;;5071901;28;19909;-84
2022/01/20 19:00:11;;;;;;;;;;;20.10;84.20;;;;;;5059247;28;19963;-84
2022/01/20 19:02:37;;;;;;;;;;;20.10;84.10;;;;;;5065540;28;19943;-84
2022/01/20 19:05:04;;;;;;;;;;;20.10;84.00;;;;;;5071858;28;19966;-84
2022/01/20 19:07:31;;;;;;;;;;;20.10;84.20;;;;;;5071005;28;19919;-83
2022/01/20 19:09:58;;;;;;;;;;;20.10;84.20;;;;;;5071767;28;19930;-84
2022/01/20 19:12:27;;;;;;;;;;;20.10;84.20;;;;;;5071301;28;19919;-84
2022/01/20 19:14:53;;;;;;;;;;;20.10;84.00;;;;;;5071427;28;19978;-84
2022/01/20 19:17:20;;;;;;;;;;;20.10;84.00;;;;;;5071494;28;19904;-83
2022/01/20 19:19:47;;;;;;;;;;;20.10;84.00;;;;;;5071690;28;20418;-85
2022/01/20 19:22:13;;;;;;;;;;;20.10;84.80;;;;;;5071215;28;20251;-85
2022/01/20 19:24:40;;;;;;;;;;;20.00;85.60;;;;;;5071146;28;19904;-84
2022/01/20 19:27:09;;;;;;;;;;;19.90;86.40;;;;;;5071383;28;20359;-84
2022/01/20 19:29:36;;;;;;;;;;;19.70;87.50;;;;;;5071502;28;19991;-85
2022/01/20 19:32:03;;;;;;;;;;;19.60;88.70;;;;;;5071039;28;20421;-85
2022/01/20 19:34:30;;;;;;;;;;;19.50;89.20;;;;;;5071184;28;19915;-85
2022/01/20 19:36:57;;;;;;;;;;;19.30;89.60;;;;;;5053654;28;19920;-85
2022/01/20 19:39:23;;;;;;;;;;;19.30;89.80;;;;;;5053961;28;19932;-85
2022/01/20 19:41:50;;;;;;;;;;;19.20;90.20;;;;;;5053589;28;20453;-85
2022/01/20 19:44:17;;;;;;;;;;;19.20;90.30;;;;;;5071094;28;19908;-85
2022/01/20 19:46:43;;;;;;;;;;;19.20;90.50;;;;;;5071387;28;19912;-85
2022/01/20 19:49:10;;;;;;;;;;;19.20;90.80;;;;;;5053403;28;20226;-85
2022/01/20 19:51:36;;;;;;;;;;;19.20;90.80;;;;;;5071014;28;20384;-85
2022/01/20 21:20:39;;;;;;;;;;;20.70;85.00;;;;;;5065345;28;19970;-87
2022/01/20 21:23:06;;;;;;;;;;;20.90;84.20;;;;;;5055402;28;19916;-88
2022/01/20 21:25:32;;;;;;;;;;;21.20;84.90;;;;;;5073377;28;19931;-87
2022/01/20 21:27:59;;;;;;;;;;;21.30;82.90;;;;;;5073325;28;20124;-87
2022/01/20 21:30:25;;;;;;;;;;;21.70;83.00;;;;;;5089025;28;19945;-86
2022/01/20 21:32:52;;;;;;;;;;;21.90;83.00;;;;;;5088971;28;20231;-86
2022/01/20 21:35:18;;;;;;;;;;;22.20;83.20;;;;;;5073477;28;19911;-88
2022/01/20 21:37:45;;;;;;;;;;;22.30;81.60;;;;;;5073132;28;20333;-87
2022/01/20 21:40:12;;;;;;;;;;;22.30;77.70;;;;;;5073321;28;19908;-85
2022/01/20 21:42:38;;;;;;;;;;;22.30;75.70;;;;;;5088652;28;19905;-87
2022/01/20 21:45:05;;;;;;;;;;;22.30;77.90;;;;;;5073195;28;19916;-86
2022/01/20 21:47:32;;;;;;;;;;;22.40;77.00;;;;;;5072964;28;19908;-84
2022/01/20 21:49:59;;;;;;;;;;;22.30;75.00;;;;;;5073487;28;19939;-85
2022/01/20 21:52:26;;;;;;;;;;;22.30;74.00;;;;;;5073138;28;19908;-86
2022/01/20 21:54:52;;;;;;;;;;;22.30;74.20;;;;;;5073609;28;19904;-85
2022/01/20 21:57:19;;;;;;;;;;;22.30;75.00;;;;;;5088417;28;20294;-88
2022/01/20 21:59:46;;;;;;;;;;;22.30;73.80;;;;;;5073225;28;20300;-87
2022/01/20 22:02:12;;;;;;;;;;;22.30;71.50;;;;;;5073410;28;19904;-86
2022/01/20 22:04:39;;;;;;;;;;;22.30;73.30;;;;;;5088371;28;19912;-86
2022/01/20 22:07:05;;;;;;;;;;;22.30;72.10;;;;;;5054636;28;20429;-85
2022/01/20 22:09:34;;;;;;;;;;;22.30;73.50;;;;;;5073085;28;19957;-87
2022/01/20 22:12:01;;;;;;;;;;;22.20;74.50;;;;;;5072584;28;19908;-84
2022/01/20 22:14:27;;;;;;;;;;;22.10;74.00;;;;;;5072799;28;19926;-86
2022/01/20 22:16:54;;;;;;;;;;;22.10;75.50;;;;;;5072062;28;19909;-86
